Terminal Aerodrome Forecast
Issued by NWS Wichita, KS

Home | Current Version | Previous Version | Text Only | Print | Product List | Glossary On
Versions: 1 2 3 4 5 6 7 8 9 10 11 12 13 14 15 16 17 18 19 20 21 22
000
FTUS43 KICT 231131
TAFICT
TAF
KICT 231131Z 2312/2412 36004KT 3SM BR OVC004
     FM231600 05007KT P6SM BKN009
     FM240300 07007KT 3SM -DZ OVC004=

USA.gov is the U.S. government's official web portal to all federal, state and local government web resources and services.